sensor_id;sensor_type;location;lat;lon;timestamp;temperature;humidity
10057;DHT22;5068;51.286;7.518;2022-07-03T00:00:44;15.80;53.30
10057;DHT22;5068;51.286;7.518;2022-07-03T00:02:20;15.80;53.40
10057;DHT22;5068;51.286;7.518;2022-07-03T00:03:57;15.80;53.50
10057;DHT22;5068;51.286;7.518;2022-07-03T00:05:36;15.70;53.80
10057;DHT22;5068;51.286;7.518;2022-07-03T00:07:13;15.70;53.70
10057;DHT22;5068;51.286;7.518;2022-07-03T00:08:48;15.70;53.80
10057;DHT22;5068;51.286;7.518;2022-07-03T00:10:22;15.60;53.70
10057;DHT22;5068;51.286;7.518;2022-07-03T00:11:57;15.60;53.70
10057;DHT22;5068;51.286;7.518;2022-07-03T00:13:32;15.60;53.80
10057;DHT22;5068;51.286;7.518;2022-07-03T00:15:07;15.60;53.90
10057;DHT22;5068;51.286;7.518;2022-07-03T00:16:42;15.60;54.10
10057;DHT22;5068;51.286;7.518;2022-07-03T00:18:18;15.50;54.00
10057;DHT22;5068;51.286;7.518;2022-07-03T00:19:53;15.50;54.00
10057;DHT22;5068;51.286;7.518;2022-07-03T00:21:34;15.50;54.10
10057;DHT22;5068;51.286;7.518;2022-07-03T00:23:17;15.40;54.10
10057;DHT22;5068;51.286;7.518;2022-07-03T00:24:53;15.40;54.20
10057;DHT22;5068;51.286;7.518;2022-07-03T00:26:39;15.40;54.20
10057;DHT22;5068;51.286;7.518;2022-07-03T00:28:20;15.30;54.30
10057;DHT22;5068;51.286;7.518;2022-07-03T00:29:59;15.30;54.30
10057;DHT22;5068;51.286;7.518;2022-07-03T00:31:35;15.30;54.30
10057;DHT22;5068;51.286;7.518;2022-07-03T00:33:10;15.30;54.30
10057;DHT22;5068;51.286;7.518;2022-07-03T00:34:50;15.20;54.30
10057;DHT22;5068;51.286;7.518;2022-07-03T00:36:26;15.20;54.40
10057;DHT22;5068;51.286;7.518;2022-07-03T00:38:04;15.20;54.50
10057;DHT22;5068;51.286;7.518;2022-07-03T00:39:44;15.10;54.40
10057;DHT22;5068;51.286;7.518;2022-07-03T00:41:30;15.10;54.50
10057;DHT22;5068;51.286;7.518;2022-07-03T00:43:09;15.00;54.50
10057;DHT22;5068;51.286;7.518;2022-07-03T00:44:46;15.00;54.50
10057;DHT22;5068;51.286;7.518;2022-07-03T00:46:23;15.00;54.60
10057;DHT22;5068;51.286;7.518;2022-07-03T00:47:58;15.00;54.70
10057;DHT22;5068;51.286;7.518;2022-07-03T00:49:32;14.90;54.70
10057;DHT22;5068;51.286;7.518;2022-07-03T00:51:07;14.90;54.80
10057;DHT22;5068;51.286;7.518;2022-07-03T00:52:50;14.80;54.70
10057;DHT22;5068;51.286;7.518;2022-07-03T00:54:32;14.80;54.80
10057;DHT22;5068;51.286;7.518;2022-07-03T00:56:08;14.80;55.00
10057;DHT22;5068;51.286;7.518;2022-07-03T00:57:52;14.70;54.90
10057;DHT22;5068;51.286;7.518;2022-07-03T00:59:32;14.70;55.20
10057;DHT22;5068;51.286;7.518;2022-07-03T01:01:07;14.70;55.00
10057;DHT22;5068;51.286;7.518;2022-07-03T01:02:56;14.60;55.10
10057;DHT22;5068;51.286;7.518;2022-07-03T01:04:46;14.60;55.30
10057;DHT22;5068;51.286;7.518;2022-07-03T01:06:33;14.60;55.40
10057;DHT22;5068;51.286;7.518;2022-07-03T01:08:33;14.60;55.50
10057;DHT22;5068;51.286;7.518;2022-07-03T01:10:26;14.60;55.60
10057;DHT22;5068;51.286;7.518;2022-07-03T01:12:17;14.50;55.50
10057;DHT22;5068;51.286;7.518;2022-07-03T01:14:14;14.50;55.50
10057;DHT22;5068;51.286;7.518;2022-07-03T01:16:01;14.40;55.70
10057;DHT22;5068;51.286;7.518;2022-07-03T01:17:45;14.50;55.50
10057;DHT22;5068;51.286;7.518;2022-07-03T01:19:38;14.40;55.50
10057;DHT22;5068;51.286;7.518;2022-07-03T01:21:26;14.40;55.90
10057;DHT22;5068;51.286;7.518;2022-07-03T01:23:19;14.40;55.90
10057;DHT22;5068;51.286;7.518;2022-07-03T01:25:14;14.30;55.90
10057;DHT22;5068;51.286;7.518;2022-07-03T01:26:55;14.30;55.90
10057;DHT22;5068;51.286;7.518;2022-07-03T01:28:36;14.30;55.90
10057;DHT22;5068;51.286;7.518;2022-07-03T01:30:18;14.30;56.00
10057;DHT22;5068;51.286;7.518;2022-07-03T01:31:54;14.20;56.00
10057;DHT22;5068;51.286;7.518;2022-07-03T01:33:35;14.20;56.10
10057;DHT22;5068;51.286;7.518;2022-07-03T01:35:15;14.20;56.10
10057;DHT22;5068;51.286;7.518;2022-07-03T01:36:54;14.20;56.10
10057;DHT22;5068;51.286;7.518;2022-07-03T01:38:32;14.20;56.20
10057;DHT22;5068;51.286;7.518;2022-07-03T01:40:09;14.20;56.30
10057;DHT22;5068;51.286;7.518;2022-07-03T01:41:44;14.10;56.30
10057;DHT22;5068;51.286;7.518;2022-07-03T01:43:27;14.10;56.40
10057;DHT22;5068;51.286;7.518;2022-07-03T01:45:03;14.10;56.50
10057;DHT22;5068;51.286;7.518;2022-07-03T01:46:44;14.00;56.30
10057;DHT22;5068;51.286;7.518;2022-07-03T01:48:19;14.00;56.50
10057;DHT22;5068;51.286;7.518;2022-07-03T01:49:56;14.00;56.60
10057;DHT22;5068;51.286;7.518;2022-07-03T01:51:34;14.00;56.70
10057;DHT22;5068;51.286;7.518;2022-07-03T01:53:14;13.90;56.60
10057;DHT22;5068;51.286;7.518;2022-07-03T01:54:54;13.90;56.60
10057;DHT22;5068;51.286;7.518;2022-07-03T01:56:32;13.90;56.80
10057;DHT22;5068;51.286;7.518;2022-07-03T01:58:10;13.90;56.80
10057;DHT22;5068;51.286;7.518;2022-07-03T01:59:45;13.90;56.80
10057;DHT22;5068;51.286;7.518;2022-07-03T02:01:32;13.80;57.40
10057;DHT22;5068;51.286;7.518;2022-07-03T02:03:21;13.80;56.80
10057;DHT22;5068;51.286;7.518;2022-07-03T02:05:02;13.80;56.90
10057;DHT22;5068;51.286;7.518;2022-07-03T02:07:00;13.70;56.60
10057;DHT22;5068;51.286;7.518;2022-07-03T02:08:44;13.70;57.00
10057;DHT22;5068;51.286;7.518;2022-07-03T02:11:09;13.70;56.90
10057;DHT22;5068;51.286;7.518;2022-07-03T02:13:00;13.70;57.10
10057;DHT22;5068;51.286;7.518;2022-07-03T02:14:45;13.60;56.90
10057;DHT22;5068;51.286;7.518;2022-07-03T02:16:26;13.60;56.90
10057;DHT22;5068;51.286;7.518;2022-07-03T02:18:05;13.60;56.90
10057;DHT22;5068;51.286;7.518;2022-07-03T02:19:48;13.60;57.20
10057;DHT22;5068;51.286;7.518;2022-07-03T02:21:28;13.50;57.20
10057;DHT22;5068;51.286;7.518;2022-07-03T02:23:03;13.50;57.20
10057;DHT22;5068;51.286;7.518;2022-07-03T02:24:42;13.50;57.20
10057;DHT22;5068;51.286;7.518;2022-07-03T02:26:22;13.50;57.40
10057;DHT22;5068;51.286;7.518;2022-07-03T02:28:04;13.50;57.50
10057;DHT22;5068;51.286;7.518;2022-07-03T02:29:46;13.50;57.70
10057;DHT22;5068;51.286;7.518;2022-07-03T02:31:25;13.40;57.70
10057;DHT22;5068;51.286;7.518;2022-07-03T02:33:00;13.40;57.60
10057;DHT22;5068;51.286;7.518;2022-07-03T02:34:35;13.40;57.70
10057;DHT22;5068;51.286;7.518;2022-07-03T02:36:11;13.30;57.70
10057;DHT22;5068;51.286;7.518;2022-07-03T02:37:53;13.30;57.90
10057;DHT22;5068;51.286;7.518;2022-07-03T02:39:41;13.40;58.10
10057;DHT22;5068;51.286;7.518;2022-07-03T02:41:23;13.40;58.20
10057;DHT22;5068;51.286;7.518;2022-07-03T02:43:14;13.30;58.10
10057;DHT22;5068;51.286;7.518;2022-07-03T02:44:53;13.30;58.30
10057;DHT22;5068;51.286;7.518;2022-07-03T02:46:38;13.30;58.00
10057;DHT22;5068;51.286;7.518;2022-07-03T02:48:29;13.30;58.10
10057;DHT22;5068;51.286;7.518;2022-07-03T02:50:20;13.30;58.00
10057;DHT22;5068;51.286;7.518;2022-07-03T02:52:12;13.30;57.90
10057;DHT22;5068;51.286;7.518;2022-07-03T02:54:08;13.20;58.00
10057;DHT22;5068;51.286;7.518;2022-07-03T02:55:46;13.20;57.80
10057;DHT22;5068;51.286;7.518;2022-07-03T02:57:20;13.20;57.80
10057;DHT22;5068;51.286;7.518;2022-07-03T02:59:06;13.20;57.80
10057;DHT22;5068;51.286;7.518;2022-07-03T03:01:47;13.20;58.20
10057;DHT22;5068;51.286;7.518;2022-07-03T03:03:29;13.10;57.90
10057;DHT22;5068;51.286;7.518;2022-07-03T03:05:09;13.10;57.80
10057;DHT22;5068;51.286;7.518;2022-07-03T03:07:01;13.20;58.10
10057;DHT22;5068;51.286;7.518;2022-07-03T03:08:47;13.10;58.10
10057;DHT22;5068;51.286;7.518;2022-07-03T03:10:29;13.10;58.20
10057;DHT22;5068;51.286;7.518;2022-07-03T03:12:09;13.10;58.00
10057;DHT22;5068;51.286;7.518;2022-07-03T03:13:50;13.10;58.20
10057;DHT22;5068;51.286;7.518;2022-07-03T03:15:32;13.00;58.10
10057;DHT22;5068;51.286;7.518;2022-07-03T03:17:16;13.00;58.10
10057;DHT22;5068;51.286;7.518;2022-07-03T03:18:55;13.00;58.30
10057;DHT22;5068;51.286;7.518;2022-07-03T03:20:31;13.00;58.10
10057;DHT22;5068;51.286;7.518;2022-07-03T03:22:15;13.00;58.10
10057;DHT22;5068;51.286;7.518;2022-07-03T03:23:59;13.00;58.20
10057;DHT22;5068;51.286;7.518;2022-07-03T03:25:33;13.00;58.10
10057;DHT22;5068;51.286;7.518;2022-07-03T03:27:07;12.90;58.00
10057;DHT22;5068;51.286;7.518;2022-07-03T03:28:41;12.90;58.00
10057;DHT22;5068;51.286;7.518;2022-07-03T03:30:15;12.90;58.00
10057;DHT22;5068;51.286;7.518;2022-07-03T03:31:57;12.90;58.00
10057;DHT22;5068;51.286;7.518;2022-07-03T03:33:39;12.90;58.10
10057;DHT22;5068;51.286;7.518;2022-07-03T03:35:14;12.90;58.30
10057;DHT22;5068;51.286;7.518;2022-07-03T03:36:51;12.80;58.10
10057;DHT22;5068;51.286;7.518;2022-07-03T03:38:25;12.80;58.20
10057;DHT22;5068;51.286;7.518;2022-07-03T03:40:07;12.80;58.20
10057;DHT22;5068;51.286;7.518;2022-07-03T03:41:46;12.80;58.40
10057;DHT22;5068;51.286;7.518;2022-07-03T03:43:22;12.80;58.30
10057;DHT22;5068;51.286;7.518;2022-07-03T03:44:55;12.70;58.20
10057;DHT22;5068;51.286;7.518;2022-07-03T03:46:33;12.70;58.30
10057;DHT22;5068;51.286;7.518;2022-07-03T03:48:07;12.70;58.50
10057;DHT22;5068;51.286;7.518;2022-07-03T03:49:42;12.70;58.50
10057;DHT22;5068;51.286;7.518;2022-07-03T03:51:17;12.70;58.50
10057;DHT22;5068;51.286;7.518;2022-07-03T03:52:54;12.60;58.40
10057;DHT22;5068;51.286;7.518;2022-07-03T03:54:29;12.60;58.50
10057;DHT22;5068;51.286;7.518;2022-07-03T03:56:04;12.60;58.60
10057;DHT22;5068;51.286;7.518;2022-07-03T03:57:43;12.60;58.70
10057;DHT22;5068;51.286;7.518;2022-07-03T03:59:21;12.50;58.70
10057;DHT22;5068;51.286;7.518;2022-07-03T04:00:56;12.50;58.70
10057;DHT22;5068;51.286;7.518;2022-07-03T04:02:32;12.50;58.80
10057;DHT22;5068;51.286;7.518;2022-07-03T04:04:11;12.50;58.80
10057;DHT22;5068;51.286;7.518;2022-07-03T04:05:51;12.40;59.00
10057;DHT22;5068;51.286;7.518;2022-07-03T04:07:27;12.40;59.00
10057;DHT22;5068;51.286;7.518;2022-07-03T04:09:03;12.40;59.10
10057;DHT22;5068;51.286;7.518;2022-07-03T04:10:36;12.40;59.10
10057;DHT22;5068;51.286;7.518;2022-07-03T04:12:10;12.40;59.20
10057;DHT22;5068;51.286;7.518;2022-07-03T04:13:45;12.40;59.30
10057;DHT22;5068;51.286;7.518;2022-07-03T04:15:19;12.40;59.20
10057;DHT22;5068;51.286;7.518;2022-07-03T04:16:56;12.40;59.40
10057;DHT22;5068;51.286;7.518;2022-07-03T04:18:32;12.30;59.40
10057;DHT22;5068;51.286;7.518;2022-07-03T04:20:07;12.30;59.50
10057;DHT22;5068;51.286;7.518;2022-07-03T04:21:45;12.30;59.50
10057;DHT22;5068;51.286;7.518;2022-07-03T04:23:19;12.30;59.60
10057;DHT22;5068;51.286;7.518;2022-07-03T04:24:53;12.30;59.60
10057;DHT22;5068;51.286;7.518;2022-07-03T04:26:27;12.30;59.60
10057;DHT22;5068;51.286;7.518;2022-07-03T04:28:06;12.30;59.60
10057;DHT22;5068;51.286;7.518;2022-07-03T04:29:55;12.30;59.80
10057;DHT22;5068;51.286;7.518;2022-07-03T04:31:29;12.30;59.70
10057;DHT22;5068;51.286;7.518;2022-07-03T04:33:03;12.30;59.90
10057;DHT22;5068;51.286;7.518;2022-07-03T04:34:36;12.30;59.90
10057;DHT22;5068;51.286;7.518;2022-07-03T04:36:10;12.30;60.10
10057;DHT22;5068;51.286;7.518;2022-07-03T04:37:45;12.30;60.20
10057;DHT22;5068;51.286;7.518;2022-07-03T04:39:21;12.30;60.40
10057;DHT22;5068;51.286;7.518;2022-07-03T04:41:00;12.20;60.30
10057;DHT22;5068;51.286;7.518;2022-07-03T04:42:33;12.20;60.40
10057;DHT22;5068;51.286;7.518;2022-07-03T04:44:11;12.30;60.50
10057;DHT22;5068;51.286;7.518;2022-07-03T04:45:45;12.30;60.70
10057;DHT22;5068;51.286;7.518;2022-07-03T04:47:18;12.20;61.50
10057;DHT22;5068;51.286;7.518;2022-07-03T04:48:56;12.20;60.70
10057;DHT22;5068;51.286;7.518;2022-07-03T04:50:30;12.20;60.90
10057;DHT22;5068;51.286;7.518;2022-07-03T04:52:07;12.20;60.90
10057;DHT22;5068;51.286;7.518;2022-07-03T04:53:45;12.30;61.20
10057;DHT22;5068;51.286;7.518;2022-07-03T04:55:20;12.20;61.20
10057;DHT22;5068;51.286;7.518;2022-07-03T04:56:54;12.30;61.40
10057;DHT22;5068;51.286;7.518;2022-07-03T04:58:30;12.30;61.40
10057;DHT22;5068;51.286;7.518;2022-07-03T05:00:06;12.30;61.50
10057;DHT22;5068;51.286;7.518;2022-07-03T05:01:40;12.30;61.70
10057;DHT22;5068;51.286;7.518;2022-07-03T05:03:22;12.30;61.80
10057;DHT22;5068;51.286;7.518;2022-07-03T05:04:56;12.30;61.70
10057;DHT22;5068;51.286;7.518;2022-07-03T05:06:41;12.40;61.90
10057;DHT22;5068;51.286;7.518;2022-07-03T05:08:14;12.30;62.10
10057;DHT22;5068;51.286;7.518;2022-07-03T05:09:49;12.40;62.10
10057;DHT22;5068;51.286;7.518;2022-07-03T05:11:26;12.40;62.20
10057;DHT22;5068;51.286;7.518;2022-07-03T05:12:59;12.40;62.20
10057;DHT22;5068;51.286;7.518;2022-07-03T05:14:37;12.50;62.20
10057;DHT22;5068;51.286;7.518;2022-07-03T05:16:11;12.50;62.40
10057;DHT22;5068;51.286;7.518;2022-07-03T05:17:48;12.50;62.30
10057;DHT22;5068;51.286;7.518;2022-07-03T05:19:26;12.60;62.40
10057;DHT22;5068;51.286;7.518;2022-07-03T05:21:02;12.60;62.50
10057;DHT22;5068;51.286;7.518;2022-07-03T05:22:37;12.70;62.90
10057;DHT22;5068;51.286;7.518;2022-07-03T05:24:12;12.70;63.00
10057;DHT22;5068;51.286;7.518;2022-07-03T05:25:51;12.70;63.10
10057;DHT22;5068;51.286;7.518;2022-07-03T05:27:25;12.80;63.20
10057;DHT22;5068;51.286;7.518;2022-07-03T05:28:59;12.90;63.10
10057;DHT22;5068;51.286;7.518;2022-07-03T05:30:33;12.90;63.00
10057;DHT22;5068;51.286;7.518;2022-07-03T05:32:07;13.00;63.10
10057;DHT22;5068;51.286;7.518;2022-07-03T05:33:41;13.00;63.20
10057;DHT22;5068;51.286;7.518;2022-07-03T05:35:20;13.10;63.30
10057;DHT22;5068;51.286;7.518;2022-07-03T05:36:53;13.10;63.30
10057;DHT22;5068;51.286;7.518;2022-07-03T05:38:29;13.20;63.10
10057;DHT22;5068;51.286;7.518;2022-07-03T05:40:39;13.20;63.00
10057;DHT22;5068;51.286;7.518;2022-07-03T05:42:14;13.30;62.90
10057;DHT22;5068;51.286;7.518;2022-07-03T05:43:47;13.40;62.80
10057;DHT22;5068;51.286;7.518;2022-07-03T05:45:23;13.40;62.80
10057;DHT22;5068;51.286;7.518;2022-07-03T05:46:59;13.60;63.00
10057;DHT22;5068;51.286;7.518;2022-07-03T05:48:33;13.60;62.90
10057;DHT22;5068;51.286;7.518;2022-07-03T05:50:10;13.60;62.90
10057;DHT22;5068;51.286;7.518;2022-07-03T05:51:44;13.70;62.90
10057;DHT22;5068;51.286;7.518;2022-07-03T05:53:19;13.80;62.70
10057;DHT22;5068;51.286;7.518;2022-07-03T05:54:58;13.80;62.60
10057;DHT22;5068;51.286;7.518;2022-07-03T05:56:36;13.90;62.50
10057;DHT22;5068;51.286;7.518;2022-07-03T05:58:11;14.00;62.60
10057;DHT22;5068;51.286;7.518;2022-07-03T05:59:45;14.00;62.80
10057;DHT22;5068;51.286;7.518;2022-07-03T06:01:21;14.10;62.90
10057;DHT22;5068;51.286;7.518;2022-07-03T06:02:55;14.20;62.80
10057;DHT22;5068;51.286;7.518;2022-07-03T06:04:29;14.20;62.90
10057;DHT22;5068;51.286;7.518;2022-07-03T06:06:05;14.30;62.80
10057;DHT22;5068;51.286;7.518;2022-07-03T06:07:39;14.30;62.60
10057;DHT22;5068;51.286;7.518;2022-07-03T06:09:13;14.40;62.60
10057;DHT22;5068;51.286;7.518;2022-07-03T06:10:48;14.50;62.50
10057;DHT22;5068;51.286;7.518;2022-07-03T06:12:26;14.50;62.00
10057;DHT22;5068;51.286;7.518;2022-07-03T06:14:04;14.60;61.90
10057;DHT22;5068;51.286;7.518;2022-07-03T06:15:39;14.60;62.10
10057;DHT22;5068;51.286;7.518;2022-07-03T06:17:21;14.70;62.10
10057;DHT22;5068;51.286;7.518;2022-07-03T06:18:55;14.80;61.90
10057;DHT22;5068;51.286;7.518;2022-07-03T06:20:29;14.90;61.70
10057;DHT22;5068;51.286;7.518;2022-07-03T06:22:03;14.90;61.60
10057;DHT22;5068;51.286;7.518;2022-07-03T06:23:37;15.00;61.80
10057;DHT22;5068;51.286;7.518;2022-07-03T06:25:19;15.20;62.00
10057;DHT22;5068;51.286;7.518;2022-07-03T06:26:53;15.20;61.80
10057;DHT22;5068;51.286;7.518;2022-07-03T06:28:26;15.20;61.50
10057;DHT22;5068;51.286;7.518;2022-07-03T06:30:07;15.30;61.40
10057;DHT22;5068;51.286;7.518;2022-07-03T06:31:43;15.40;61.00
10057;DHT22;5068;51.286;7.518;2022-07-03T06:33:17;15.50;60.80
10057;DHT22;5068;51.286;7.518;2022-07-03T06:34:50;15.50;60.60
10057;DHT22;5068;51.286;7.518;2022-07-03T06:36:25;15.60;60.60
10057;DHT22;5068;51.286;7.518;2022-07-03T06:38:01;15.70;60.40
10057;DHT22;5068;51.286;7.518;2022-07-03T06:39:35;15.80;60.50
10057;DHT22;5068;51.286;7.518;2022-07-03T06:41:09;15.90;60.40
10057;DHT22;5068;51.286;7.518;2022-07-03T06:42:51;15.90;60.20
10057;DHT22;5068;51.286;7.518;2022-07-03T06:44:24;16.00;59.70
10057;DHT22;5068;51.286;7.518;2022-07-03T06:45:59;16.10;59.70
10057;DHT22;5068;51.286;7.518;2022-07-03T06:47:38;16.20;59.50
10057;DHT22;5068;51.286;7.518;2022-07-03T06:49:12;16.30;59.50
10057;DHT22;5068;51.286;7.518;2022-07-03T06:50:48;16.40;59.40
10057;DHT22;5068;51.286;7.518;2022-07-03T06:52:22;16.40;59.10
10057;DHT22;5068;51.286;7.518;2022-07-03T06:53:56;16.50;58.80
10057;DHT22;5068;51.286;7.518;2022-07-03T06:55:29;16.60;58.90
10057;DHT22;5068;51.286;7.518;2022-07-03T06:57:03;16.70;58.80
10057;DHT22;5068;51.286;7.518;2022-07-03T06:58:37;16.80;58.70
10057;DHT22;5068;51.286;7.518;2022-07-03T07:00:12;16.90;58.80
10057;DHT22;5068;51.286;7.518;2022-07-03T07:01:55;16.90;59.00
10057;DHT22;5068;51.286;7.518;2022-07-03T07:03:29;17.00;59.30
10057;DHT22;5068;51.286;7.518;2022-07-03T07:05:03;17.10;59.50
10057;DHT22;5068;51.286;7.518;2022-07-03T07:06:37;17.10;59.20
10057;DHT22;5068;51.286;7.518;2022-07-03T07:08:11;17.30;59.00
10057;DHT22;5068;51.286;7.518;2022-07-03T07:09:48;17.30;58.50
10057;DHT22;5068;51.286;7.518;2022-07-03T07:11:27;17.40;58.40
10057;DHT22;5068;51.286;7.518;2022-07-03T07:13:01;17.50;58.50
10057;DHT22;5068;51.286;7.518;2022-07-03T07:14:37;17.60;58.50
10057;DHT22;5068;51.286;7.518;2022-07-03T07:16:11;17.70;58.60
10057;DHT22;5068;51.286;7.518;2022-07-03T07:17:46;17.80;58.80
10057;DHT22;5068;51.286;7.518;2022-07-03T07:19:22;17.90;58.80
10057;DHT22;5068;51.286;7.518;2022-07-03T07:20:55;18.00;58.70
10057;DHT22;5068;51.286;7.518;2022-07-03T07:22:29;18.00;58.10
10057;DHT22;5068;51.286;7.518;2022-07-03T07:24:03;18.10;57.60
10057;DHT22;5068;51.286;7.518;2022-07-03T07:25:37;18.20;56.80
10057;DHT22;5068;51.286;7.518;2022-07-03T07:27:15;18.30;55.90
10057;DHT22;5068;51.286;7.518;2022-07-03T07:28:48;18.40;55.90
10057;DHT22;5068;51.286;7.518;2022-07-03T07:30:22;18.50;55.20
10057;DHT22;5068;51.286;7.518;2022-07-03T07:31:56;18.60;54.80
10057;DHT22;5068;51.286;7.518;2022-07-03T07:33:31;18.70;54.60
10057;DHT22;5068;51.286;7.518;2022-07-03T07:35:09;18.80;54.70
10057;DHT22;5068;51.286;7.518;2022-07-03T07:36:43;19.00;54.80
10057;DHT22;5068;51.286;7.518;2022-07-03T07:38:17;19.10;54.50
10057;DHT22;5068;51.286;7.518;2022-07-03T07:39:55;19.10;54.30
10057;DHT22;5068;51.286;7.518;2022-07-03T07:41:31;19.30;53.70
10057;DHT22;5068;51.286;7.518;2022-07-03T07:43:06;19.40;53.80
10057;DHT22;5068;51.286;7.518;2022-07-03T07:44:41;19.50;53.00
10057;DHT22;5068;51.286;7.518;2022-07-03T07:46:15;19.60;52.60
10057;DHT22;5068;51.286;7.518;2022-07-03T07:47:49;19.70;52.60
10057;DHT22;5068;51.286;7.518;2022-07-03T07:49:25;19.80;52.70
10057;DHT22;5068;51.286;7.518;2022-07-03T07:50:58;19.90;52.30
10057;DHT22;5068;51.286;7.518;2022-07-03T07:52:32;20.00;52.00
10057;DHT22;5068;51.286;7.518;2022-07-03T07:54:06;20.10;51.80
10057;DHT22;5068;51.286;7.518;2022-07-03T07:55:41;20.20;51.40
10057;DHT22;5068;51.286;7.518;2022-07-03T07:57:15;20.30;51.30
10057;DHT22;5068;51.286;7.518;2022-07-03T07:58:49;20.40;51.00
10057;DHT22;5068;51.286;7.518;2022-07-03T08:00:23;20.50;50.70
10057;DHT22;5068;51.286;7.518;2022-07-03T08:01:56;20.60;50.00
10057;DHT22;5068;51.286;7.518;2022-07-03T08:03:50;20.70;49.70
10057;DHT22;5068;51.286;7.518;2022-07-03T08:05:43;20.90;48.90
10057;DHT22;5068;51.286;7.518;2022-07-03T08:07:17;20.90;48.40
10057;DHT22;5068;51.286;7.518;2022-07-03T08:08:51;21.00;48.10
10057;DHT22;5068;51.286;7.518;2022-07-03T08:10:25;21.10;48.20
10057;DHT22;5068;51.286;7.518;2022-07-03T08:12:01;21.20;47.70
10057;DHT22;5068;51.286;7.518;2022-07-03T08:13:36;21.30;47.60
10057;DHT22;5068;51.286;7.518;2022-07-03T08:15:11;21.40;47.80
10057;DHT22;5068;51.286;7.518;2022-07-03T08:16:47;21.50;47.70
10057;DHT22;5068;51.286;7.518;2022-07-03T08:18:21;21.60;47.10
10057;DHT22;5068;51.286;7.518;2022-07-03T08:19:57;21.70;47.10
10057;DHT22;5068;51.286;7.518;2022-07-03T08:21:32;21.80;46.80
10057;DHT22;5068;51.286;7.518;2022-07-03T08:23:06;21.90;46.50
10057;DHT22;5068;51.286;7.518;2022-07-03T08:24:42;22.00;46.40
10057;DHT22;5068;51.286;7.518;2022-07-03T08:26:19;22.10;46.70
10057;DHT22;5068;51.286;7.518;2022-07-03T08:28:00;22.20;45.00
10057;DHT22;5068;51.286;7.518;2022-07-03T08:29:34;22.30;45.30
10057;DHT22;5068;51.286;7.518;2022-07-03T08:31:08;22.40;44.90
10057;DHT22;5068;51.286;7.518;2022-07-03T08:32:44;22.40;44.60
10057;DHT22;5068;51.286;7.518;2022-07-03T08:34:19;22.50;44.70
10057;DHT22;5068;51.286;7.518;2022-07-03T08:35:52;22.60;44.80
10057;DHT22;5068;51.286;7.518;2022-07-03T08:37:29;22.70;44.60
10057;DHT22;5068;51.286;7.518;2022-07-03T08:39:05;22.70;43.50
10057;DHT22;5068;51.286;7.518;2022-07-03T08:40:43;22.80;43.50
10057;DHT22;5068;51.286;7.518;2022-07-03T08:42:19;22.90;43.20
10057;DHT22;5068;51.286;7.518;2022-07-03T08:43:53;23.00;43.20
10057;DHT22;5068;51.286;7.518;2022-07-03T08:45:33;23.10;43.20
10057;DHT22;5068;51.286;7.518;2022-07-03T08:47:12;23.20;42.90
10057;DHT22;5068;51.286;7.518;2022-07-03T08:48:47;23.20;43.00
10057;DHT22;5068;51.286;7.518;2022-07-03T08:50:25;23.30;42.80
10057;DHT22;5068;51.286;7.518;2022-07-03T08:52:00;23.40;42.20
10057;DHT22;5068;51.286;7.518;2022-07-03T08:53:43;23.40;41.60
10057;DHT22;5068;51.286;7.518;2022-07-03T08:55:20;23.50;41.10
10057;DHT22;5068;51.286;7.518;2022-07-03T08:56:56;23.60;41.70
10057;DHT22;5068;51.286;7.518;2022-07-03T08:58:31;23.60;41.20
10057;DHT22;5068;51.286;7.518;2022-07-03T09:00:08;23.70;41.20
10057;DHT22;5068;51.286;7.518;2022-07-03T09:01:46;23.80;41.10
10057;DHT22;5068;51.286;7.518;2022-07-03T09:03:24;23.90;41.00
10057;DHT22;5068;51.286;7.518;2022-07-03T09:05:00;23.90;40.70
10057;DHT22;5068;51.286;7.518;2022-07-03T09:06:36;24.00;40.90
10057;DHT22;5068;51.286;7.518;2022-07-03T09:08:17;24.10;40.50
10057;DHT22;5068;51.286;7.518;2022-07-03T09:09:53;24.10;40.20
10057;DHT22;5068;51.286;7.518;2022-07-03T09:11:31;24.20;39.70
10057;DHT22;5068;51.286;7.518;2022-07-03T09:13:04;24.20;39.50
10057;DHT22;5068;51.286;7.518;2022-07-03T09:14:37;24.30;39.20
10057;DHT22;5068;51.286;7.518;2022-07-03T09:16:14;24.40;38.80
10057;DHT22;5068;51.286;7.518;2022-07-03T09:17:59;24.40;38.40
10057;DHT22;5068;51.286;7.518;2022-07-03T09:19:41;24.50;37.90
10057;DHT22;5068;51.286;7.518;2022-07-03T09:21:18;24.60;37.10
10057;DHT22;5068;51.286;7.518;2022-07-03T09:22:52;24.60;37.60
10057;DHT22;5068;51.286;7.518;2022-07-03T09:24:29;24.60;37.80
10057;DHT22;5068;51.286;7.518;2022-07-03T09:26:12;24.70;38.00
10057;DHT22;5068;51.286;7.518;2022-07-03T09:27:49;24.80;37.50
10057;DHT22;5068;51.286;7.518;2022-07-03T09:29:24;24.80;38.10
10057;DHT22;5068;51.286;7.518;2022-07-03T09:31:00;24.80;38.00
10057;DHT22;5068;51.286;7.518;2022-07-03T09:32:42;24.90;38.20
10057;DHT22;5068;51.286;7.518;2022-07-03T09:34:21;24.90;37.90
10057;DHT22;5068;51.286;7.518;2022-07-03T09:35:56;24.90;37.40
10057;DHT22;5068;51.286;7.518;2022-07-03T09:37:29;25.00;37.50
10057;DHT22;5068;51.286;7.518;2022-07-03T09:39:20;25.00;37.20
10057;DHT22;5068;51.286;7.518;2022-07-03T09:40:58;25.00;36.30
10057;DHT22;5068;51.286;7.518;2022-07-03T09:42:36;25.00;37.10
10057;DHT22;5068;51.286;7.518;2022-07-03T09:44:28;25.00;36.60
10057;DHT22;5068;51.286;7.518;2022-07-03T09:46:03;25.00;36.20
10057;DHT22;5068;51.286;7.518;2022-07-03T09:47:37;25.10;36.90
10057;DHT22;5068;51.286;7.518;2022-07-03T09:49:15;25.10;36.80
10057;DHT22;5068;51.286;7.518;2022-07-03T09:51:08;25.20;36.80
10057;DHT22;5068;51.286;7.518;2022-07-03T09:52:50;25.20;36.50
10057;DHT22;5068;51.286;7.518;2022-07-03T09:54:24;25.20;36.30
10057;DHT22;5068;51.286;7.518;2022-07-03T09:55:58;25.30;35.90
10057;DHT22;5068;51.286;7.518;2022-07-03T09:57:33;25.30;35.40
10057;DHT22;5068;51.286;7.518;2022-07-03T09:59:09;25.40;35.60
10057;DHT22;5068;51.286;7.518;2022-07-03T10:00:44;25.40;35.50
10057;DHT22;5068;51.286;7.518;2022-07-03T10:02:20;25.40;35.00
10057;DHT22;5068;51.286;7.518;2022-07-03T10:03:55;25.50;34.80
10057;DHT22;5068;51.286;7.518;2022-07-03T10:05:43;25.50;35.00
10057;DHT22;5068;51.286;7.518;2022-07-03T10:07:17;25.50;35.10
10057;DHT22;5068;51.286;7.518;2022-07-03T10:08:50;25.60;34.80
10057;DHT22;5068;51.286;7.518;2022-07-03T10:10:26;25.60;34.40
10057;DHT22;5068;51.286;7.518;2022-07-03T10:12:03;25.60;34.60
10057;DHT22;5068;51.286;7.518;2022-07-03T10:13:40;25.60;34.50
10057;DHT22;5068;51.286;7.518;2022-07-03T10:15:19;25.60;34.70
10057;DHT22;5068;51.286;7.518;2022-07-03T10:16:53;25.60;34.90
10057;DHT22;5068;51.286;7.518;2022-07-03T10:18:30;25.60;35.00
10057;DHT22;5068;51.286;7.518;2022-07-03T10:20:13;25.60;35.40
10057;DHT22;5068;51.286;7.518;2022-07-03T10:21:52;25.60;34.60
10057;DHT22;5068;51.286;7.518;2022-07-03T10:23:26;25.60;35.10
10057;DHT22;5068;51.286;7.518;2022-07-03T10:25:01;25.70;34.80
10057;DHT22;5068;51.286;7.518;2022-07-03T10:26:39;25.70;34.50
10057;DHT22;5068;51.286;7.518;2022-07-03T10:28:16;25.70;33.50
10057;DHT22;5068;51.286;7.518;2022-07-03T10:29:52;25.70;33.30